Time;durP1;ratioP1;P1;durP2;ratioP2;P2;SDS_P1;SDS_P2;PMS_P1;PMS_P2;Temp;Humidity;BMP_temperature;BMP_pressure;BME280_temperature;BME280_humidity;BME280_pressure;Samples;Min_cycle;Max_cycle;Signal;HPM_P1;HPM_P2
2021/06/15 00:02:07;;;;;;;2.78;1.00;;;15.10;90.70;;;;;;5084433;28;20313;-77
2021/06/15 00:04:32;;;;;;;5.22;1.35;;;15.10;88.90;;;;;;5065562;28;20035;-77
2021/06/15 00:06:58;;;;;;;5.25;1.13;;;15.10;86.60;;;;;;5089241;28;20024;-77
2021/06/15 00:09:23;;;;;;;4.55;1.00;;;15.10;87.60;;;;;;5058567;28;20004;-76
2021/06/15 00:11:49;;;;;;;3.47;0.82;;;15.10;87.00;;;;;;5073568;28;20009;-77
2021/06/15 00:14:15;;;;;;;8.40;1.40;;;15.00;84.60;;;;;;5088543;28;20023;-77
2021/06/15 00:16:40;;;;;;;6.07;1.38;;;15.00;84.60;;;;;;5084094;28;20079;-77
2021/06/15 00:19:06;;;;;;;4.20;1.30;;;14.90;85.10;;;;;;5050475;28;20047;-77
2021/06/15 00:21:31;;;;;;;4.68;1.23;;;14.90;86.00;;;;;;5083858;28;20017;-77
2021/06/15 00:23:57;;;;;;;4.25;1.20;;;14.90;85.40;;;;;;5083914;28;20386;-77
2021/06/15 00:26:22;;;;;;;7.10;1.60;;;14.90;84.70;;;;;;5083917;28;20018;-77
2021/06/15 00:28:48;;;;;;;4.57;1.00;;;14.80;84.70;;;;;;5085139;28;20038;-77
2021/06/15 00:31:14;;;;;;;4.00;1.05;;;14.80;85.00;;;;;;5083893;28;20012;-77
2021/06/15 00:33:39;;;;;;;7.68;1.45;;;14.80;85.40;;;;;;5084354;28;20072;-77
2021/06/15 00:36:05;;;;;;;8.93;1.20;;;14.80;86.10;;;;;;5067288;28;20008;-77
2021/06/15 00:38:31;;;;;;;4.35;1.00;;;14.90;87.30;;;;;;5063987;28;20315;-76
2021/06/15 00:40:56;;;;;;;5.28;1.33;;;14.90;88.60;;;;;;5067843;28;20047;-76
2021/06/15 00:43:22;;;;;;;7.85;1.50;;;14.90;86.40;;;;;;5076969;28;20019;-76
2021/06/15 00:45:47;;;;;;;3.22;1.02;;;14.80;83.30;;;;;;5067166;28;20027;-77
2021/06/15 00:48:31;;;;;;;6.97;1.77;;;14.80;84.00;;;;;;5066469;28;20012;-77
2021/06/15 00:50:56;;;;;;;5.50;1.30;;;14.70;85.50;;;;;;5083471;28;20032;-77
2021/06/15 00:53:22;;;;;;;6.60;1.27;;;14.60;85.90;;;;;;5066624;28;20062;-77
2021/06/15 00:55:48;;;;;;;7.50;1.40;;;14.60;86.70;;;;;;5066382;28;20066;-77
2021/06/15 00:58:13;;;;;;;6.60;1.52;;;14.60;85.60;;;;;;5066175;28;20025;-77
2021/06/15 01:00:39;;;;;;;4.97;1.17;;;14.50;84.60;;;;;;5066595;28;20334;-77
2021/06/15 01:03:05;;;;;;;7.88;1.20;;;14.50;85.50;;;;;;5083135;28;20016;-77
2021/06/15 01:05:30;;;;;;;4.82;0.98;;;14.50;85.60;;;;;;5066639;28;20080;-77
2021/06/15 01:08:33;;;;;;;4.13;1.30;;;14.50;87.20;;;;;;5085029;28;20016;-77
2021/06/15 01:11:21;;;;;;;5.82;1.55;;;14.50;86.90;;;;;;5080751;28;20016;-77
2021/06/15 01:14:15;;;;;;;6.32;1.35;;;14.40;86.00;;;;;;5064775;28;20004;-77
2021/06/15 01:16:48;;;;;;;6.53;1.60;;;14.40;85.70;;;;;;5062671;28;20005;-76
2021/06/15 01:19:23;;;;;;;7.55;1.40;;;14.40;86.90;;;;;;5081973;28;20008;-77
2021/06/15 01:22:25;;;;;;;5.28;1.52;;;14.40;87.90;;;;;;5066436;28;20012;-77
2021/06/15 01:25:29;;;;;;;9.15;1.38;;;14.40;87.40;;;;;;5046823;28;20032;-76
2021/06/15 01:27:58;;;;;;;5.88;1.25;;;14.30;86.80;;;;;;5082897;28;20175;-77
2021/06/15 01:30:26;;;;;;;7.38;1.60;;;14.40;87.30;;;;;;5090780;28;20009;-76
2021/06/15 01:32:57;;;;;;;6.68;1.13;;;14.40;89.30;;;;;;5071482;28;20001;-77
2021/06/15 01:35:23;;;;;;;6.00;1.55;;;14.40;87.60;;;;;;5070096;28;20195;-77
2021/06/15 01:37:55;;;;;;;5.38;1.58;;;14.40;86.10;;;;;;5089181;28;20338;-78
2021/06/15 01:40:23;;;;;;;6.18;1.67;;;14.30;85.70;;;;;;5050852;28;20057;-77
2021/06/15 01:42:50;;;;;;;6.28;1.45;;;14.30;85.80;;;;;;5047022;28;20048;-77
2021/06/15 01:45:42;;;;;;;8.25;1.48;;;14.30;86.50;;;;;;5082465;28;20020;-77
2021/06/15 01:48:34;;;;;;;3.47;1.10;;;14.30;86.60;;;;;;5068176;28;20040;-77
2021/06/15 01:51:01;;;;;;;;;;;14.30;86.60;;;;;;5068601;28;20009;-77
2021/06/15 01:53:26;;;;;;;9.07;1.77;;;14.40;87.20;;;;;;5082778;28;19897;-77
2021/06/15 01:55:53;;;;;;;5.70;1.05;;;14.30;87.80;;;;;;5065923;28;20024;-77
2021/06/15 01:58:19;;;;;;;8.32;1.80;;;14.30;87.70;;;;;;5082333;28;20004;-77
2021/06/15 02:00:45;;;;;;;8.13;1.58;;;14.30;86.30;;;;;;5066066;28;20012;-76
2021/06/15 02:03:11;;;;;;;6.80;1.40;;;14.20;86.30;;;;;;5069994;28;20333;-77
2021/06/15 02:05:49;;;;;;;3.10;1.08;;;14.20;86.10;;;;;;5046019;28;20024;-77
2021/06/15 02:08:25;;;;;;;8.75;1.83;;;14.20;86.30;;;;;;5039938;28;20030;-78
2021/06/15 02:10:51;;;;;;;7.07;1.58;;;14.20;86.80;;;;;;5067154;28;20012;-78
2021/06/15 02:13:16;;;;;;;7.22;1.70;;;14.20;85.20;;;;;;5049268;28;20024;-77
2021/06/15 02:15:42;;;;;;;3.45;1.10;;;14.20;85.10;;;;;;5082952;28;20044;-77
2021/06/15 02:18:07;;;;;;;7.18;1.30;;;14.10;85.40;;;;;;5065359;28;20016;-78
2021/06/15 02:20:35;;;;;;;6.30;1.60;;;14.20;86.00;;;;;;5066121;28;20013;-77
2021/06/15 02:23:02;;;;;;;7.97;1.85;;;14.20;86.90;;;;;;5062424;28;20013;-77
2021/06/15 02:25:32;;;;;;;8.40;1.67;;;14.20;86.60;;;;;;5046297;28;20024;-78
2021/06/15 02:27:58;;;;;;;4.80;1.25;;;14.20;86.30;;;;;;5049535;28;20019;-78
2021/06/15 02:30:24;;;;;;;5.78;1.30;;;14.20;86.70;;;;;;5067017;28;20008;-78
2021/06/15 02:32:50;;;;;;;6.25;1.20;;;14.20;86.10;;;;;;5070250;28;20032;-78
2021/06/15 02:35:16;;;;;;;6.22;1.52;;;14.20;85.50;;;;;;5066913;28;20299;-77
2021/06/15 02:37:48;;;;;;;7.07;1.92;;;14.10;85.50;;;;;;5071552;28;20023;-77
2021/06/15 02:40:15;;;;;;;;;;;14.10;84.60;;;;;;5053889;28;20055;-77
2021/06/15 02:42:42;;;;;;;5.95;1.55;;;14.20;85.60;;;;;;5079699;28;19959;-78
2021/06/15 02:45:09;;;;;;;6.57;1.60;;;14.10;85.70;;;;;;5065936;28;20027;-77
2021/06/15 02:47:34;;;;;;;6.55;1.30;;;14.10;86.50;;;;;;5053578;28;20012;-78
2021/06/15 02:50:00;;;;;;;5.40;1.17;;;14.10;86.00;;;;;;5052388;28;20312;-77
2021/06/15 02:52:37;;;;;;;7.18;1.48;;;14.10;86.50;;;;;;5052230;28;20083;-78
2021/06/15 02:55:14;;;;;;;6.40;1.38;;;14.20;87.10;;;;;;5071460;28;20314;-77
2021/06/15 02:57:39;;;;;;;6.63;1.40;;;14.20;86.00;;;;;;5085910;28;20009;-77
2021/06/15 03:00:07;;;;;;;7.63;1.80;;;14.10;86.50;;;;;;5052545;28;20079;-77
2021/06/15 03:02:33;;;;;;;6.57;1.45;;;14.10;86.70;;;;;;5085456;28;20040;-77
2021/06/15 03:04:58;;;;;;;5.78;1.63;;;14.20;86.80;;;;;;5085247;28;20039;-77
2021/06/15 03:07:24;;;;;;;8.43;1.60;;;14.20;86.30;;;;;;5068300;28;20206;-77
2021/06/15 03:09:50;;;;;;;5.57;1.48;;;14.20;86.10;;;;;;5051819;28;20017;-77
2021/06/15 03:12:19;;;;;;;9.20;1.77;;;14.20;86.00;;;;;;5068932;28;20088;-77
2021/06/15 03:14:59;;;;;;;9.13;2.33;;;14.20;86.30;;;;;;5085515;28;20012;-77
2021/06/15 03:17:27;;;;;;;5.45;1.48;;;14.20;86.10;;;;;;5068215;28;20015;-79
2021/06/15 03:19:58;;;;;;;8.98;2.05;;;14.20;86.10;;;;;;5068429;28;20012;-77
2021/06/15 03:22:29;;;;;;;6.40;1.58;;;14.30;86.60;;;;;;5085326;28;20014;-76
2021/06/15 03:24:58;;;;;;;9.82;1.67;;;14.30;86.70;;;;;;5072917;28;20073;-77
2021/06/15 03:27:46;;;;;;;6.15;1.20;;;14.20;85.40;;;;;;5065132;28;20013;-77
2021/06/15 03:30:12;;;;;;;7.10;1.60;;;14.30;85.60;;;;;;5051097;28;20009;-77
2021/06/15 03:32:49;;;;;;;8.65;2.38;;;14.30;85.20;;;;;;5070724;28;20245;-77
2021/06/15 03:35:15;;;;;;;8.00;1.77;;;14.30;86.50;;;;;;5064972;28;20092;-77
2021/06/15 03:37:41;;;;;;;6.70;1.38;;;14.30;86.60;;;;;;5038148;28;20016;-77
2021/06/15 03:40:07;;;;;;;7.82;1.42;;;14.30;86.70;;;;;;5067503;28;20078;-77
2021/06/15 03:42:37;;;;;;;4.70;1.25;;;14.40;86.80;;;;;;5065121;28;20039;-77
2021/06/15 03:45:05;;;;;;;7.95;1.95;;;14.40;86.80;;;;;;5084299;28;20020;-76
2021/06/15 03:47:30;;;;;;;3.50;1.15;;;14.40;86.70;;;;;;5066392;28;20369;-77
2021/06/15 03:49:56;;;;;;;5.15;1.45;;;14.40;86.30;;;;;;5050904;28;20012;-77
2021/06/15 03:52:29;;;;;;;8.23;1.60;;;14.40;86.00;;;;;;5067224;28;20270;-77
2021/06/15 03:54:57;;;;;;;6.60;1.42;;;14.40;85.80;;;;;;5083834;28;20252;-77
2021/06/15 03:57:24;;;;;;;6.30;1.40;;;14.40;86.40;;;;;;5083017;28;20020;-77
2021/06/15 03:59:50;;;;;;;8.23;1.73;;;14.40;85.40;;;;;;5055509;28;20357;-77
2021/06/15 04:02:16;;;;;;;8.52;1.40;;;14.40;84.90;;;;;;5049420;28;20027;-78
2021/06/15 04:04:42;;;;;;;6.85;1.63;;;14.40;85.20;;;;;;5064762;28;20204;-77
2021/06/15 04:07:13;;;;;;;8.98;1.60;;;14.40;86.10;;;;;;5065458;28;20004;-77
2021/06/15 04:09:39;;;;;;;4.00;0.90;;;14.40;86.40;;;;;;5084725;28;20008;-77
2021/06/15 04:12:06;;;;;;;5.50;1.17;;;14.40;85.60;;;;;;5067575;28;20016;-77
2021/06/15 04:14:31;;;;;;;7.15;1.52;;;14.40;86.00;;;;;;5084651;28;20012;-76
2021/06/15 04:16:57;;;;;;;7.25;1.65;;;14.50;87.80;;;;;;5086452;28;20019;-76
2021/06/15 04:19:31;;;;;;;6.50;1.30;;;14.60;88.70;;;;;;5072776;28;20016;-76
2021/06/15 04:22:00;;;;;;;7.75;1.52;;;14.70;88.00;;;;;;5068066;28;20296;-76
2021/06/15 04:24:26;;;;;;;3.78;1.23;;;14.80;87.80;;;;;;5068056;28;20123;-77
2021/06/15 04:26:54;;;;;;;5.13;1.30;;;14.80;87.60;;;;;;5084361;28;20012;-77
2021/06/15 04:29:20;;;;;;;3.70;0.90;;;14.90;87.50;;;;;;5083401;28;20360;-77
2021/06/15 04:31:46;;;;;;;5.57;1.27;;;14.80;88.00;;;;;;5050832;28;20254;-77
2021/06/15 04:34:12;;;;;;;7.10;2.15;;;14.90;87.50;;;;;;5050501;28;20020;-77
2021/06/15 04:36:38;;;;;;;3.95;1.05;;;14.80;87.50;;;;;;5064600;28;20032;-77
2021/06/15 04:39:05;;;;;;;6.45;1.63;;;14.90;88.00;;;;;;5074347;28;20083;-78
2021/06/15 04:42:04;;;;;;;7.53;1.58;;;14.90;88.50;;;;;;5071850;28;20035;-77
2021/06/15 04:44:35;;;;;;;5.00;1.40;;;14.90;88.30;;;;;;5015383;28;20030;-77
2021/06/15 04:47:14;;;;;;;;;;;14.90;88.20;;;;;;5013721;28;20094;-77
2021/06/15 04:49:44;;;;;;;5.20;1.20;;;14.90;88.00;;;;;;5009883;28;19901;-77
2021/06/15 04:52:10;;;;;;;5.37;0.80;;;14.90;88.20;;;;;;5026698;28;20013;-77
2021/06/15 04:54:38;;;;;;;8.02;1.40;;;14.80;88.40;;;;;;5024927;28;20101;-77
2021/06/15 04:57:07;;;;;;;6.32;1.10;;;14.90;88.20;;;;;;5027784;28;20067;-77
2021/06/15 04:59:34;;;;;;;3.15;0.98;;;14.90;87.80;;;;;;5027853;28;20326;-77
2021/06/15 05:01:59;;;;;;;12.55;1.63;;;15.00;88.10;;;;;;5011204;28;20033;-77
2021/06/15 05:04:25;;;;;;;4.15;1.10;;;15.00;88.00;;;;;;5011126;28;20031;-77
2021/06/15 05:06:51;;;;;;;6.55;1.40;;;15.00;87.50;;;;;;5030077;28;20307;-77
2021/06/15 05:09:16;;;;;;;3.90;1.23;;;15.10;87.20;;;;;;5011116;28;20351;-77
2021/06/15 05:11:42;;;;;;;3.95;1.23;;;15.10;85.60;;;;;;5027331;28;20171;-77
2021/06/15 05:14:09;;;;;;;6.93;1.40;;;15.20;85.20;;;;;;5010817;28;20014;-77
2021/06/15 05:16:35;;;;;;;3.83;1.10;;;15.20;85.00;;;;;;5043673;28;20016;-77
2021/06/15 05:19:01;;;;;;;6.45;1.10;;;15.30;84.90;;;;;;5009839;28;20009;-79
2021/06/15 05:21:53;;;;;;;3.15;0.90;;;15.30;84.40;;;;;;5053404;28;20024;-77
2021/06/15 05:24:37;;;;;;;;;;;15.40;83.90;;;;;;5079073;28;20088;-76
2021/06/15 05:27:03;;;;;;;3.88;0.80;;;15.50;84.40;;;;;;5085978;28;20184;-77
2021/06/15 05:29:28;;;;;;;4.28;1.00;;;15.50;83.90;;;;;;5084612;28;20014;-77
2021/06/15 05:31:54;;;;;;;6.28;1.42;;;15.70;83.10;;;;;;5047712;28;20016;-77
2021/06/15 05:34:20;;;;;;;5.20;1.40;;;15.70;82.30;;;;;;5064489;28;20009;-78
2021/06/15 05:36:46;;;;;;;6.68;1.13;;;15.90;82.60;;;;;;5064722;28;20023;-77
2021/06/15 05:39:11;;;;;;;4.90;1.27;;;15.80;81.90;;;;;;5084606;28;20059;-77
2021/06/15 05:41:37;;;;;;;5.20;1.27;;;15.80;82.30;;;;;;5058565;28;20012;-77
2021/06/15 05:44:03;;;;;;;7.63;1.70;;;15.70;82.10;;;;;;5076458;28;20079;-77
2021/06/15 05:46:29;;;;;;;6.47;1.38;;;15.70;82.70;;;;;;5076460;28;20025;-77
2021/06/15 05:48:54;;;;;;;5.15;1.25;;;15.80;82.20;;;;;;5076007;28;20013;-77
2021/06/15 05:51:20;;;;;;;5.38;1.20;;;15.80;81.70;;;;;;5071880;28;20020;-77
2021/06/15 05:53:45;;;;;;;8.15;1.55;;;15.70;82.70;;;;;;5085638;28;20330;-77
2021/06/15 05:56:11;;;;;;;4.88;1.23;;;15.80;82.40;;;;;;5057488;28;20107;-77
2021/06/15 05:58:37;;;;;;;2.33;0.75;;;15.80;82.00;;;;;;5090843;28;20058;-77
2021/06/15 06:01:02;;;;;;;4.93;1.30;;;16.00;81.70;;;;;;5090608;28;20062;-77
2021/06/15 06:03:38;;;;;;;5.30;1.20;;;15.80;79.40;;;;;;5072722;28;20038;-77
2021/06/15 06:08:48;;;;;;;4.68;1.20;;;16.10;80.60;;;;;;5090783;28;20019;-77
2021/06/15 06:11:14;;;;;;;7.75;1.55;;;16.60;79.50;;;;;;5083827;28;20005;-77
2021/06/15 06:13:39;;;;;;;4.78;1.38;;;17.20;76.20;;;;;;5065742;28;20039;-79
2021/06/15 06:16:08;;;;;;;5.70;1.48;;;17.50;73.80;;;;;;5083480;28;20076;-79
2021/06/15 06:18:36;;;;;;;2.38;0.90;;;17.80;72.70;;;;;;5082140;28;20329;-78
2021/06/15 06:21:05;;;;;;;6.18;1.20;;;17.90;73.10;;;;;;5068655;28;20068;-77
2021/06/15 06:23:31;;;;;;;4.22;1.05;;;18.00;70.20;;;;;;5087322;28;20016;-77
2021/06/15 06:25:57;;;;;;;5.75;1.40;;;17.90;70.00;;;;;;5087119;28;20034;-76
2021/06/15 06:28:23;;;;;;;4.35;1.35;;;18.00;70.80;;;;;;5089219;28;20358;-77
2021/06/15 06:30:48;;;;;;;3.38;1.20;;;18.10;69.20;;;;;;5082806;28;20012;-77
2021/06/15 06:33:14;;;;;;;3.60;0.95;;;18.30;67.80;;;;;;5086842;28;20008;-77
2021/06/15 06:35:39;;;;;;;4.10;1.00;;;18.10;66.70;;;;;;5069777;28;20304;-77
2021/06/15 06:38:05;;;;;;;3.78;1.27;;;17.90;67.00;;;;;;5085269;28;20009;-76
2021/06/15 06:40:32;;;;;;;2.78;0.90;;;18.10;67.40;;;;;;5068958;28;20041;-77
2021/06/15 06:42:57;;;;;;;3.33;1.10;;;18.30;67.10;;;;;;5076886;28;20021;-76
2021/06/15 06:45:23;;;;;;;4.15;1.38;;;18.60;65.70;;;;;;5071314;28;20036;-77
2021/06/15 06:47:49;;;;;;;2.55;0.93;;;18.70;65.00;;;;;;5052360;28;20027;-80
2021/06/15 06:50:14;;;;;;;3.17;1.02;;;18.70;64.80;;;;;;5063736;28;20023;-77
2021/06/15 06:52:40;;;;;;;7.53;1.58;;;18.80;65.50;;;;;;5062909;28;20218;-77
2021/06/15 06:55:06;;;;;;;5.47;1.45;;;18.70;64.50;;;;;;5065565;28;20031;-76
2021/06/15 06:57:32;;;;;;;4.57;1.30;;;18.80;65.20;;;;;;5064257;28;20009;-78
2021/06/15 06:59:57;;;;;;;4.07;1.30;;;18.80;64.80;;;;;;5067107;28;20104;-77
2021/06/15 07:02:23;;;;;;;3.55;1.10;;;18.60;64.70;;;;;;5068172;28;20012;-78
2021/06/15 07:04:49;;;;;;;4.05;1.17;;;18.60;66.10;;;;;;5082950;28;20028;-77
2021/06/15 07:07:14;;;;;;;4.47;1.33;;;18.80;65.40;;;;;;5066795;28;20013;-76
2021/06/15 07:09:40;;;;;;;5.47;1.30;;;18.80;65.30;;;;;;5077511;28;20012;-76
2021/06/15 07:12:06;;;;;;;5.43;1.33;;;18.90;64.80;;;;;;5047428;28;20341;-77
2021/06/15 07:14:32;;;;;;;4.05;1.30;;;18.90;65.20;;;;;;5063776;28;20024;-77
2021/06/15 07:16:57;;;;;;;3.45;1.00;;;19.20;65.10;;;;;;5062790;28;20018;-76
2021/06/15 07:19:23;;;;;;;3.25;0.90;;;19.50;63.00;;;;;;5073901;28;20035;-77
2021/06/15 07:21:49;;;;;;;5.63;1.30;;;19.40;62.60;;;;;;5065710;28;20027;-78
2021/06/15 07:24:14;;;;;;;2.53;1.00;;;19.20;61.70;;;;;;5079454;28;20016;-76
2021/06/15 07:26:40;;;;;;;4.32;1.17;;;19.00;62.00;;;;;;5071447;28;20021;-78
2021/06/15 07:29:05;;;;;;;7.35;1.10;;;18.90;62.40;;;;;;5076218;28;20581;-77
2021/06/15 07:31:31;;;;;;;3.50;0.90;;;19.10;61.40;;;;;;5059450;28;20032;-76
2021/06/15 07:33:57;;;;;;;3.15;1.15;;;19.10;60.10;;;;;;5064348;28;20016;-77
2021/06/15 07:36:23;;;;;;;4.35;1.00;;;19.50;58.40;;;;;;5063061;28;20020;-76
2021/06/15 07:38:51;;;;;;;2.33;1.02;;;19.60;57.30;;;;;;5080449;28;20309;-77
2021/06/15 07:41:16;;;;;;;3.67;1.00;;;19.70;56.60;;;;;;5066221;28;20028;-77
2021/06/15 07:43:42;;;;;;;3.30;0.90;;;19.50;56.90;;;;;;5065782;28;20021;-77
2021/06/15 07:46:08;;;;;;;3.40;0.95;;;19.70;57.80;;;;;;5056965;28;20432;-77
2021/06/15 07:48:33;;;;;;;5.15;1.42;;;19.80;58.00;;;;;;5079606;28;20021;-77
2021/06/15 07:50:59;;;;;;;2.40;1.10;;;19.70;58.40;;;;;;5068123;28;20109;-75
2021/06/15 07:53:25;;;;;;;5.80;1.30;;;19.70;57.60;;;;;;5070386;28;20013;-76
2021/06/15 07:55:50;;;;;;;5.57;1.23;;;19.60;57.20;;;;;;5076186;28;20042;-76
2021/06/15 07:58:16;;;;;;;5.15;1.25;;;19.50;56.90;;;;;;5057844;28;20070;-76
2021/06/15 08:00:42;;;;;;;4.18;1.15;;;19.40;57.60;;;;;;5057323;28;20028;-76
2021/06/15 08:03:07;;;;;;;3.63;1.20;;;19.50;57.10;;;;;;5076201;28;20009;-76
2021/06/15 08:05:33;;;;;;;3.78;1.27;;;19.70;56.20;;;;;;5067747;28;20051;-76
2021/06/15 08:08:00;;;;;;;2.17;1.08;;;19.80;55.90;;;;;;5057446;28;20016;-76
2021/06/15 08:10:26;;;;;;;3.33;1.20;;;19.80;56.20;;;;;;5066645;28;20216;-75
2021/06/15 08:12:52;;;;;;;3.58;1.02;;;20.20;55.10;;;;;;5077733;28;20032;-78
2021/06/15 08:15:17;;;;;;;3.83;1.10;;;20.30;54.30;;;;;;5063006;28;20028;-76
2021/06/15 08:17:44;;;;;;;4.15;1.08;;;20.20;55.60;;;;;;5061575;28;20363;-76
2021/06/15 08:20:10;;;;;;;4.18;1.27;;;20.30;55.90;;;;;;5058106;28;20012;-76
2021/06/15 08:22:36;;;;;;;3.97;0.80;;;20.20;56.00;;;;;;5057566;28;20039;-75
2021/06/15 08:25:01;;;;;;;5.15;1.20;;;20.20;55.20;;;;;;5078321;28;20028;-76
2021/06/15 08:27:27;;;;;;;3.13;0.80;;;20.20;54.50;;;;;;5074885;28;20027;-76
2021/06/15 08:29:53;;;;;;;3.30;0.90;;;20.20;55.00;;;;;;5058462;28;20017;-78
2021/06/15 08:32:18;;;;;;;3.67;1.00;;;20.10;54.20;;;;;;5073466;28;20082;-77
2021/06/15 08:34:44;;;;;;;3.70;1.45;;;20.20;54.60;;;;;;5072179;28;20130;-77
2021/06/15 08:37:09;;;;;;;5.95;1.10;;;20.30;54.10;;;;;;5070123;28;20028;-78
2021/06/15 08:39:35;;;;;;;1.88;0.80;;;20.70;54.50;;;;;;5071284;28;20044;-79
2021/06/15 08:42:01;;;;;;;3.45;1.05;;;20.90;54.20;;;;;;5077394;28;20008;-77
2021/06/15 08:44:26;;;;;;;2.35;0.75;;;20.80;53.70;;;;;;5066064;28;20032;-76
2021/06/15 08:46:52;;;;;;;3.30;1.00;;;20.70;53.70;;;;;;5054562;28;20021;-77
2021/06/15 08:49:18;;;;;;;2.70;0.73;;;20.80;53.70;;;;;;5069615;28;20095;-76
2021/06/15 08:51:44;;;;;;;3.33;1.20;;;20.70;54.00;;;;;;5058533;28;20021;-79
2021/06/15 08:54:11;;;;;;;3.53;0.90;;;20.80;53.50;;;;;;5035015;28;20005;-76
2021/06/15 08:56:37;;;;;;;1.52;0.70;;;20.70;54.70;;;;;;5056001;28;20025;-76
2021/06/15 08:59:38;;;;;;;5.07;1.20;;;20.40;54.80;;;;;;5070980;28;20091;-75
2021/06/15 09:02:07;;;;;;;;;;;20.20;55.30;;;;;;5042132;28;20032;-74
2021/06/15 09:04:34;;;;;;;3.30;1.10;;;20.40;55.70;;;;;;5031957;28;20211;-76
2021/06/15 09:06:59;;;;;;;3.42;1.10;;;20.50;56.00;;;;;;5069128;28;20016;-75
2021/06/15 09:09:41;;;;;;;4.35;1.15;;;20.70;56.20;;;;;;5065356;28;20037;-76
2021/06/15 09:12:08;;;;;;;5.53;1.23;;;20.70;56.50;;;;;;5035571;28;20416;-77
2021/06/15 09:15:00;;;;;;;4.25;1.17;;;21.00;55.30;;;;;;5027163;28;20031;-76
2021/06/15 09:17:26;;;;;;;6.28;1.60;;;21.20;54.00;;;;;;5060216;28;20052;-74
2021/06/15 09:19:52;;;;;;;2.33;0.98;;;21.20;54.10;;;;;;5062325;28;20012;-75
2021/06/15 09:22:33;;;;;;;4.32;1.30;;;21.20;54.60;;;;;;5062468;28;20049;-74
2021/06/15 09:25:03;;;;;;;3.25;1.05;;;20.90;55.10;;;;;;5047006;28;20028;-74
2021/06/15 09:27:33;;;;;;;6.40;1.20;;;20.80;55.00;;;;;;5064876;28;20020;-75
2021/06/15 09:30:00;;;;;;;4.37;1.10;;;20.90;55.40;;;;;;5051204;28;20020;-74
2021/06/15 09:32:26;;;;;;;4.32;1.13;;;20.80;54.30;;;;;;5040850;28;20409;-74
2021/06/15 09:35:00;;;;;;;2.80;1.00;;;20.60;54.80;;;;;;5070263;28;20025;-74
2021/06/15 09:37:35;;;;;;;5.40;1.38;;;20.80;55.90;;;;;;5076828;28;20023;-75
2021/06/15 09:40:08;;;;;;;3.75;1.27;;;20.70;55.90;;;;;;5098468;28;20121;-75
2021/06/15 09:42:34;;;;;;;4.40;1.30;;;20.80;55.90;;;;;;5088830;28;20056;-77
2021/06/15 09:45:05;;;;;;;3.55;1.10;;;20.50;55.50;;;;;;5070102;28;20032;-77
2021/06/15 09:47:30;;;;;;;3.00;1.20;;;20.30;56.30;;;;;;5071631;28;20025;-77
2021/06/15 09:49:56;;;;;;;4.05;1.42;;;20.80;55.60;;;;;;5071576;28;20020;-77
2021/06/15 09:52:29;;;;;;;3.28;1.20;;;20.40;56.50;;;;;;5081862;28;20015;-77
2021/06/15 09:55:03;;;;;;;3.13;1.17;;;20.50;57.50;;;;;;5052424;28;20332;-77
2021/06/15 09:57:32;;;;;;;2.17;1.00;;;20.60;56.70;;;;;;5066574;28;20036;-77
2021/06/15 10:00:04;;;;;;;4.20;1.25;;;21.00;56.40;;;;;;5083190;28;20020;-78
2021/06/15 10:02:30;;;;;;;3.72;1.08;;;21.20;55.90;;;;;;5087184;28;20094;-78
2021/06/15 10:04:56;;;;;;;4.68;1.17;;;21.50;55.50;;;;;;5085283;28;20024;-79
2021/06/15 10:07:26;;;;;;;3.15;1.25;;;21.50;55.40;;;;;;5087042;28;20016;-79
2021/06/15 10:09:52;;;;;;;4.50;1.10;;;21.70;54.20;;;;;;5067368;28;20020;-77
2021/06/15 10:12:17;;;;;;;3.10;1.05;;;21.40;54.60;;;;;;5051694;28;20009;-78
2021/06/15 10:14:43;;;;;;;5.55;1.45;;;21.10;55.20;;;;;;5065281;28;20024;-79
2021/06/15 10:17:09;;;;;;;6.75;1.67;;;21.20;56.10;;;;;;5068785;28;20008;-78
2021/06/15 10:19:35;;;;;;;3.88;1.23;;;21.00;56.40;;;;;;5059908;28;20780;-78
2021/06/15 10:22:01;;;;;;;5.35;1.45;;;20.60;56.90;;;;;;5063926;28;20012;-78
2021/06/15 10:24:27;;;;;;;5.43;1.55;;;20.30;57.80;;;;;;5043616;28;20020;-78
2021/06/15 10:26:52;;;;;;;4.78;1.40;;;20.10;58.70;;;;;;5064997;28;20024;-79
2021/06/15 10:29:18;;;;;;;3.95;1.55;;;20.20;59.00;;;;;;5065236;28;20051;-79
2021/06/15 10:31:45;;;;;;;3.95;1.27;;;20.70;59.00;;;;;;5061982;28;20005;-79
2021/06/15 10:34:11;;;;;;;4.07;1.50;;;21.00;58.30;;;;;;5050527;28;20016;-78
2021/06/15 10:36:42;;;;;;;5.68;1.48;;;20.90;57.70;;;;;;5061228;28;20076;-78
2021/06/15 10:39:10;;;;;;;4.35;1.23;;;20.80;59.00;;;;;;5067795;28;20037;-77
2021/06/15 10:41:36;;;;;;;4.97;1.33;;;20.90;57.50;;;;;;5075218;28;20024;-79
2021/06/15 10:44:02;;;;;;;5.22;1.65;;;21.00;57.50;;;;;;5049544;28;20573;-78
2021/06/15 10:46:36;;;;;;;5.28;1.70;;;20.70;57.40;;;;;;5076173;28;20226;-75
2021/06/15 10:49:02;;;;;;;4.20;1.33;;;20.30;57.80;;;;;;5079002;28;20044;-79
2021/06/15 10:51:29;;;;;;;4.70;1.10;;;20.10;58.90;;;;;;5084655;28;20027;-76
2021/06/15 10:54:02;;;;;;;4.22;1.23;;;19.90;59.30;;;;;;5080346;28;20024;-77
2021/06/15 10:56:31;;;;;;;4.97;1.52;;;19.80;60.20;;;;;;5071396;28;20491;-81
2021/06/15 10:59:06;;;;;;;4.55;1.20;;;19.90;59.30;;;;;;5074577;28;20015;-80
2021/06/15 11:01:33;;;;;;;3.70;1.40;;;19.90;60.00;;;;;;5070292;28;20008;-80
2021/06/15 11:04:06;;;;;;;3.53;1.10;;;20.10;59.50;;;;;;5041436;28;20351;-79
2021/06/15 11:06:32;;;;;;;6.78;1.45;;;20.10;59.00;;;;;;5043228;28;20020;-78
2021/06/15 11:09:13;;;;;;;3.65;1.02;;;20.10;58.60;;;;;;5074764;28;20355;-79
2021/06/15 11:11:38;;;;;;;2.53;1.05;;;20.40;58.60;;;;;;5079063;28;20015;-78
2021/06/15 11:14:17;;;;;;;3.85;1.25;;;20.40;58.90;;;;;;5062654;28;20036;-79
2021/06/15 11:16:45;;;;;;;3.83;1.45;;;20.40;58.70;;;;;;5079004;28;20032;-78
2021/06/15 11:19:14;;;;;;;6.25;1.85;;;20.10;59.10;;;;;;5063958;28;20016;-78
2021/06/15 11:21:53;;;;;;;3.08;1.17;;;20.20;58.90;;;;;;5078856;28;20085;-80
2021/06/15 11:24:21;;;;;;;3.47;0.80;;;20.30;58.60;;;;;;5062302;28;20046;-78
2021/06/15 11:26:48;;;;;;;2.60;1.05;;;20.20;59.50;;;;;;5077910;28;20013;-81
2021/06/15 11:29:37;;;;;;;1.73;0.82;;;20.10;58.70;;;;;;5049642;28;20092;-78
2021/06/15 11:32:17;;;;;;;6.50;1.40;;;20.30;57.80;;;;;;5078657;28;20047;-80
2021/06/15 11:35:03;;;;;;;5.55;1.55;;;20.00;58.00;;;;;;5076066;28;20020;-80
2021/06/15 11:37:38;;;;;;;5.97;1.48;;;19.40;59.30;;;;;;5073176;28;20053;-80
2021/06/15 11:40:35;;;;;;;2.65;1.20;;;19.40;60.50;;;;;;5084546;28;20040;-81
2021/06/15 11:43:11;;;;;;;4.35;1.08;;;19.80;59.50;;;;;;5068329;28;20016;-80
2021/06/15 11:45:38;;;;;;;6.03;1.55;;;20.30;57.80;;;;;;5078866;28;20021;-82
2021/06/15 11:48:14;;;;;;;3.65;1.20;;;20.10;58.40;;;;;;5065426;28;20019;-81
2021/06/15 11:50:40;;;;;;;3.53;1.02;;;19.90;59.60;;;;;;5064114;28;20098;-78
2021/06/15 11:53:09;;;;;;;4.28;1.02;;;20.30;59.10;;;;;;5064848;28;20012;-80
2021/06/15 11:55:46;;;;;;;4.20;1.40;;;20.50;58.20;;;;;;5064346;28;20051;-77
2021/06/15 11:58:25;;;;;;;4.85;1.20;;;20.30;56.90;;;;;;5046045;28;20283;-80
2021/06/15 12:00:52;;;;;;;4.72;1.40;;;20.40;56.70;;;;;;5061813;28;20436;-79
2021/06/15 12:03:19;;;;;;;3.90;1.08;;;20.30;57.70;;;;;;5076782;28;20317;-79
2021/06/15 12:05:47;;;;;;;3.72;1.08;;;20.20;59.10;;;;;;5063640;28;20095;-78
2021/06/15 12:08:13;;;;;;;2.65;0.90;;;19.90;59.60;;;;;;5044841;28;20009;-78
2021/06/15 12:10:39;;;;;;;2.53;1.23;;;19.60;60.10;;;;;;5046852;28;20028;-77
2021/06/15 12:13:12;;;;;;;4.35;1.13;;;19.60;60.80;;;;;;5051924;28;20005;-78
2021/06/15 12:15:41;;;;;;;3.45;1.15;;;19.60;61.40;;;;;;5082768;28;20012;-78
2021/06/15 12:18:27;;;;;;;3.15;0.88;;;19.20;62.40;;;;;;5083108;28;20008;-78
2021/06/15 12:20:55;;;;;;;5.78;1.33;;;19.20;62.90;;;;;;5054288;28;20047;-77
2021/06/15 12:23:21;;;;;;;2.58;0.82;;;19.00;61.40;;;;;;5048308;28;20056;-78
2021/06/15 12:25:47;;;;;;;2.58;0.88;;;18.80;62.30;;;;;;5088050;28;20020;-78
2021/06/15 12:28:17;;;;;;;3.10;1.00;;;18.80;63.00;;;;;;5047936;28;20015;-78
2021/06/15 12:30:44;;;;;;;5.30;1.40;;;19.30;61.80;;;;;;5080554;28;20065;-78
2021/06/15 12:33:10;;;;;;;5.95;1.45;;;19.60;60.60;;;;;;5061383;28;20021;-77
2021/06/15 12:35:36;;;;;;;3.92;1.15;;;19.60;60.90;;;;;;5060925;28;20214;-78
2021/06/15 12:38:14;;;;;;;6.63;1.65;;;19.80;61.70;;;;;;5061901;28;20015;-78
2021/06/15 12:40:41;;;;;;;4.70;1.45;;;19.50;62.80;;;;;;5061643;28;20058;-78
2021/06/15 12:43:07;;;;;;;5.22;1.45;;;19.20;63.80;;;;;;5046681;28;20009;-78
2021/06/15 12:45:34;;;;;;;3.25;1.20;;;19.00;65.20;;;;;;5065394;28;20040;-78
2021/06/15 12:48:01;;;;;;;6.35;1.27;;;18.90;65.90;;;;;;5046472;28;20016;-78
2021/06/15 12:50:27;;;;;;;7.03;1.65;;;18.90;64.20;;;;;;5076061;28;20004;-78
2021/06/15 12:53:02;;;;;;;5.72;1.25;;;18.50;64.40;;;;;;5060043;28;20231;-78
2021/06/15 12:55:28;;;;;;;6.95;1.65;;;18.20;65.40;;;;;;5063214;28;20076;-77
2021/06/15 12:57:58;;;;;;;4.82;1.55;;;18.10;65.60;;;;;;5077074;28;20008;-78
2021/06/15 13:00:23;;;;;;;4.05;1.10;;;17.90;66.10;;;;;;5060684;28;20012;-79